Huvudsida
METAR-TAF:

METAR-TAF

Flygplatser :

Sundsvall Timrå Airport

Sundsvall-Härnösand, Sverige

latitud: 62-32N, longitud: 017-27E, höjd: 4 m

Aktuellt väderrapport

Denna rapport gjordes för 10 minuter sedan, klockan 11:50 UTC
Vind 14 kt från sydost
Temperatur 19°C
Fuktighet 73%
Tryck 1011 hPa
Sikt 10 km eller mer
Brutna moln på en höjd av 3700 ft
Brutna moln på en höjd av 5500 ft

METAR: ESNN 161150Z 13014KT 9999 BKN037 BKN055 19/14 Q1011

Tid: 14:00 (12:00 UTC)

Väderprognos

Denna rapport gjordes för 30 minuter sedan, klockan 11:30 UTC
Prognos gäller från 16 kl. 12 UTC till 16 kl. 21 UTC
Vind 12 kt från sydost
Sikt 10 km eller mer
Brutna moln på en höjd av 3500 ft

TAF: ESNN 161130Z 1612/1621 14012KT 9999 BKN035

Aktuella väderrapporter och prognoser från 4000 flygplatser (METAR- och TAF-rapporter).

De tillgängliga stationerna syns som gula och röda prickar på kartan.

För musen över prickarna för att se namnen på stationerna.

Klicka sedan för att få väderrapporter och prognoser.

För att ändra kartan: Klicka på de gröna knapparna med ett svart kors på för att zooma in; den gröna knappen med ett streck på för att zooma ut; eller på de gröna pilarna för angränsande kartor.


METAR-TAF: